Time;durP1;ratioP1;P1;durP2;ratioP2;P2;SDS_P1;SDS_P2;PMS_P1;PMS_P2;Temp;Humidity;BMP_temperature;BMP_pressure;BME280_temperature;BME280_humidity;BME280_pressure;Samples;Min_cycle;Max_cycle;Signal;HPM_P1;HPM_P2
2023/07/18 00:00:40;;;;;;;;;;;;;;;16.53;45.17;100888.22;4992835;28;989;-56
2023/07/18 00:03:06;;;;;;;;;;;;;;;16.49;45.36;100882.44;4979002;28;1025;-56
2023/07/18 00:05:33;;;;;;;;;;;;;;;16.60;45.29;100880.56;4997116;28;1905;-56
2023/07/18 00:07:58;;;;;;;;;;;;;;;16.56;45.29;100890.44;4985779;28;1207;-57
2023/07/18 00:10:24;;;;;;;;;;;;;;;16.50;45.35;100892.34;4992457;28;1052;-57
2023/07/18 00:12:49;;;;;;;;;;;;;;;16.52;45.43;100886.56;4997797;28;1134;-57
2023/07/18 00:15:15;;;;;;;;;;;;;;;16.47;45.25;100881.09;4997718;28;1207;-56
2023/07/18 00:17:41;;;;;;;;;;;;;;;16.47;45.18;100875.59;4990469;28;2012;-56
2023/07/18 00:20:10;;;;;;;;;;;;;;;16.39;45.62;100871.44;4997932;28;1012;-57
2023/07/18 00:22:36;;;;;;;;;;;;;;;16.53;45.27;100861.59;4997660;28;947;-56
2023/07/18 00:25:02;;;;;;;;;;;;;;;16.48;45.40;100858.88;4997603;28;1975;-56
2023/07/18 00:27:28;;;;;;;;;;;;;;;16.56;45.32;100862.97;4985986;28;1044;-56
2023/07/18 00:29:55;;;;;;;;;;;;;;;16.56;45.12;100863.81;4996738;28;1040;-56
2023/07/18 00:32:22;;;;;;;;;;;;;;;16.52;45.32;100850.91;4997411;28;1013;-58
2023/07/18 00:34:56;;;;;;;;;;;;;;;16.50;45.27;100850.34;5012477;28;1156;-58
2023/07/18 00:37:22;;;;;;;;;;;;;;;16.55;44.96;100842.13;4997848;28;1067;-58
2023/07/18 00:39:47;;;;;;;;;;;;;;;16.52;45.19;100842.66;4997774;28;1110;-58
2023/07/18 00:42:13;;;;;;;;;;;;;;;16.52;45.10;100829.78;4997307;28;1191;-58
2023/07/18 00:44:38;;;;;;;;;;;;;;;16.48;45.41;100836.91;4989717;28;1914;-58
2023/07/18 00:47:05;;;;;;;;;;;;;;;16.45;45.57;100834.69;4981106;28;1361;-58
2023/07/18 00:49:30;;;;;;;;;;;;;;;16.53;45.41;100838.81;4997189;28;2202;-58
2023/07/18 00:51:58;;;;;;;;;;;;;;;16.46;45.19;100835.53;4990308;28;1291;-59
2023/07/18 00:54:23;;;;;;;;;;;;;;;16.41;45.33;100839.91;4997228;28;1084;-58
2023/07/18 00:56:49;;;;;;;;;;;;;;;16.51;45.13;100841.84;4993729;28;1255;-58
2023/07/18 00:59:14;;;;;;;;;;;;;;;16.54;45.11;100837.75;4999770;28;869;-58
2023/07/18 01:01:40;;;;;;;;;;;;;;;16.46;45.31;100841.00;5012311;28;1004;-58
2023/07/18 01:04:08;;;;;;;;;;;;;;;16.45;45.37;100840.16;4997562;28;1902;-58
2023/07/18 01:06:34;;;;;;;;;;;;;;;16.50;45.32;100844.88;4984289;28;1004;-59
2023/07/18 01:09:00;;;;;;;;;;;;;;;16.51;45.25;100843.75;4999391;28;1066;-58
2023/07/18 01:11:25;;;;;;;;;;;;;;;16.51;44.94;100830.03;4996916;28;969;-58
2023/07/18 01:13:51;;;;;;;;;;;;;;;16.53;45.02;100831.41;4996900;28;1120;-58
2023/07/18 01:16:16;;;;;;;;;;;;;;;16.56;45.07;100830.03;4982963;28;1091;-58
2023/07/18 01:18:42;;;;;;;;;;;;;;;16.47;45.31;100827.00;4996884;28;2175;-58
2023/07/18 01:21:09;;;;;;;;;;;;;;;16.50;45.07;100820.16;4982961;28;1098;-58
2023/07/18 01:23:35;;;;;;;;;;;;;;;16.44;45.33;100811.09;4992364;28;1994;-58
2023/07/18 01:26:00;;;;;;;;;;;;;;;16.48;45.40;100816.84;4990698;28;1081;-57
2023/07/18 01:28:26;;;;;;;;;;;;;;;16.45;45.26;100807.22;4985239;28;1175;-57
2023/07/18 01:30:54;;;;;;;;;;;;;;;16.49;45.02;100804.78;4995065;28;1102;-57
2023/07/18 01:33:19;;;;;;;;;;;;;;;16.39;45.18;100803.66;4984780;28;1112;-57
2023/07/18 01:35:46;;;;;;;;;;;;;;;16.45;45.08;100806.41;4990055;28;1433;-57
2023/07/18 01:38:12;;;;;;;;;;;;;;;16.57;45.08;100807.00;4996579;28;1059;-57
2023/07/18 01:40:38;;;;;;;;;;;;;;;16.45;45.05;100811.91;4992096;28;1183;-57
2023/07/18 01:43:03;;;;;;;;;;;;;;;16.47;45.04;100812.47;4996593;28;1098;-57
2023/07/18 01:45:29;;;;;;;;;;;;;;;16.45;45.31;100818.22;4996421;28;1918;-57
2023/07/18 01:47:55;;;;;;;;;;;;;;;16.39;45.28;100808.34;4995240;28;1924;-57
2023/07/18 01:50:20;;;;;;;;;;;;;;;16.45;45.08;100814.66;4983733;28;1056;-57
2023/07/18 01:52:46;;;;;;;;;;;;;;;16.33;45.34;100793.78;4995593;28;1265;-57
2023/07/18 01:55:12;;;;;;;;;;;;;;;16.41;45.28;100801.47;4996635;28;1136;-57
2023/07/18 01:57:38;;;;;;;;;;;;;;;16.42;45.15;100803.13;4989206;28;1296;-57
2023/07/18 02:00:04;;;;;;;;;;;;;;;16.37;45.19;100805.88;4994987;28;1566;-56
2023/07/18 02:02:39;;;;;;;;;;;;;;;16.41;45.25;100795.16;4996392;28;1120;-58
2023/07/18 02:05:04;;;;;;;;;;;;;;;16.50;44.83;100793.53;4994049;28;2244;-58
2023/07/18 02:07:30;;;;;;;;;;;;;;;16.54;44.73;100805.63;5000232;28;1203;-57
2023/07/18 02:09:56;;;;;;;;;;;;;;;16.46;44.82;100805.34;5006538;28;1096;-57
2023/07/18 02:12:21;;;;;;;;;;;;;;;16.37;45.29;100805.88;4995294;28;1650;-57
2023/07/18 02:14:47;;;;;;;;;;;;;;;16.51;44.77;100806.16;5007330;28;1291;-57
2023/07/18 02:17:13;;;;;;;;;;;;;;;16.47;44.86;100801.50;4986631;28;2028;-56
2023/07/18 02:19:39;;;;;;;;;;;;;;;16.43;44.92;100803.94;4993934;28;979;-57
2023/07/18 02:22:04;;;;;;;;;;;;;;;16.40;45.01;100797.06;4995998;28;1100;-57
2023/07/18 02:24:30;;;;;;;;;;;;;;;16.42;44.82;100803.13;4995700;28;1914;-58
2023/07/18 02:26:55;;;;;;;;;;;;;;;16.38;44.74;100802.03;5000307;28;1175;-56
2023/07/18 02:29:21;;;;;;;;;;;;;;;16.38;45.04;100802.03;4980957;28;1052;-57
2023/07/18 02:31:47;;;;;;;;;;;;;;;16.46;44.64;100803.41;4985457;28;1132;-56
2023/07/18 02:34:12;;;;;;;;;;;;;;;16.28;45.31;100796.50;4984492;28;1025;-55
2023/07/18 02:36:38;;;;;;;;;;;;;;;16.40;44.86;100799.81;4996371;28;1020;-56
2023/07/18 02:39:07;;;;;;;;;;;;;;;16.44;44.68;100791.88;4982464;28;1111;-57
2023/07/18 02:41:32;;;;;;;;;;;;;;;16.33;44.89;100793.78;4984044;28;1017;-55
2023/07/18 02:43:58;;;;;;;;;;;;;;;16.36;45.07;100790.47;4995885;28;1977;-55
2023/07/18 02:46:23;;;;;;;;;;;;;;;16.31;44.83;100789.66;4994372;28;997;-57
2023/07/18 02:48:49;;;;;;;;;;;;;;;16.28;45.17;100785.53;4999102;28;1802;-56
2023/07/18 02:51:14;;;;;;;;;;;;;;;16.30;45.11;100772.38;4998160;28;1039;-56
2023/07/18 02:53:40;;;;;;;;;;;;;;;16.32;44.97;100770.16;4998334;28;1327;-57
2023/07/18 02:56:05;;;;;;;;;;;;;;;16.37;44.65;100761.94;4998134;28;1305;-57
2023/07/18 02:58:31;;;;;;;;;;;;;;;16.41;44.72;100762.22;4989067;28;1432;-57
2023/07/18 03:00:56;;;;;;;;;;;;;;;16.31;44.84;100773.19;4999072;28;1286;-56
2023/07/18 03:03:22;;;;;;;;;;;;;;;16.25;44.92;100775.09;5013897;28;1174;-55
2023/07/18 03:05:51;;;;;;;;;;;;;;;16.30;44.98;100768.78;4998652;28;1985;-54
2023/07/18 03:08:16;;;;;;;;;;;;;;;16.31;44.91;100764.97;5013866;28;1124;-53
2023/07/18 03:10:42;;;;;;;;;;;;;;;16.28;44.93;100769.06;4998788;28;1087;-55
2023/07/18 03:13:07;;;;;;;;;;;;;;;16.83;45.17;100763.91;4999515;28;1116;-55
2023/07/18 03:15:33;;;;;;;;;;;;;;;16.73;46.53;100758.41;4989453;28;1092;-54
2023/07/18 03:17:58;;;;;;;;;;;;;;;16.57;46.17;100760.31;4996529;28;1822;-55
2023/07/18 03:20:24;;;;;;;;;;;;;;;16.48;46.01;100761.94;4994661;28;1338;-52
2023/07/18 03:22:50;;;;;;;;;;;;;;;16.50;45.72;100757.03;4994692;28;1088;-54
2023/07/18 03:25:16;;;;;;;;;;;;;;;16.49;45.64;100763.59;4998635;28;1918;-52
2023/07/18 03:27:41;;;;;;;;;;;;;;;16.53;45.27;100754.53;4997562;28;1101;-55
2023/07/18 03:30:10;;;;;;;;;;;;;;;16.53;45.02;100748.25;4987776;28;1071;-52
2023/07/18 03:32:36;;;;;;;;;;;;;;;16.51;45.11;100754.00;4992538;28;1024;-49
2023/07/18 03:35:02;;;;;;;;;;;;;;;16.50;45.34;100759.78;4998510;28;1178;-52
2023/07/18 03:37:28;;;;;;;;;;;;;;;16.49;45.16;100747.13;4998446;28;1084;-51
2023/07/18 03:39:53;;;;;;;;;;;;;;;16.46;44.82;100748.50;4997994;28;1162;-51
2023/07/18 03:42:19;;;;;;;;;;;;;;;16.36;45.22;100752.06;5013705;28;1353;-52
2023/07/18 03:44:44;;;;;;;;;;;;;;;16.42;45.20;100742.75;4997796;28;1906;-56
2023/07/18 03:47:10;;;;;;;;;;;;;;;16.46;44.89;100753.19;4997415;28;2001;-54
2023/07/18 03:49:35;;;;;;;;;;;;;;;16.48;45.06;100770.19;4998559;28;1040;-54
2023/07/18 03:52:01;;;;;;;;;;;;;;;16.46;45.06;100770.47;4998214;28;1144;-55
2023/07/18 03:54:26;;;;;;;;;;;;;;;16.43;45.17;100776.50;4998376;28;1106;-56
2023/07/18 03:56:52;;;;;;;;;;;;;;;16.40;45.18;100777.06;4997998;28;1077;-54
2023/07/18 03:59:18;;;;;;;;;;;;;;;16.42;45.08;100772.94;4997931;28;1190;-51
2023/07/18 04:01:43;;;;;;;;;;;;;;;16.37;45.28;100770.19;4997332;28;1017;-54
2023/07/18 04:04:09;;;;;;;;;;;;;;;16.30;45.26;100766.88;4998201;28;1979;-54
2023/07/18 04:06:34;;;;;;;;;;;;;;;16.31;45.31;100767.69;4998429;28;1190;-56
2023/07/18 04:09:00;;;;;;;;;;;;;;;16.37;45.49;100761.13;4997933;28;1121;-55
2023/07/18 04:11:25;;;;;;;;;;;;;;;16.42;44.91;100761.97;4997828;28;1080;-54
2023/07/18 04:13:51;;;;;;;;;;;;;;;16.40;45.12;100744.94;4998422;28;1027;-53
2023/07/18 04:16:16;;;;;;;;;;;;;;;16.39;44.98;100737.78;4998071;28;1095;-52
2023/07/18 04:18:43;;;;;;;;;;;;;;;16.43;45.17;100749.88;4997673;28;2651;-53
2023/07/18 04:21:08;;;;;;;;;;;;;;;16.37;45.36;100761.13;4997789;28;1159;-54
2023/07/18 04:23:34;;;;;;;;;;;;;;;16.40;45.15;100758.66;4997644;28;1171;-51
2023/07/18 04:26:02;;;;;;;;;;;;;;;16.39;45.28;100759.75;4997711;28;1902;-53
2023/07/18 04:28:29;;;;;;;;;;;;;;;16.38;45.25;100747.16;4997739;28;1156;-52
2023/07/18 04:30:54;;;;;;;;;;;;;;;16.35;45.16;100749.59;4997687;28;1157;-50
2023/07/18 04:33:20;;;;;;;;;;;;;;;16.37;45.40;100750.16;4997657;28;1040;-48
2023/07/18 04:35:45;;;;;;;;;;;;;;;16.38;45.29;100752.63;4995866;28;1091;-54
2023/07/18 04:38:12;;;;;;;;;;;;;;;16.45;45.28;100757.03;4997060;28;1114;-53
2023/07/18 04:40:37;;;;;;;;;;;;;;;16.46;45.06;100770.47;4997530;28;1039;-52
2023/07/18 04:43:02;;;;;;;;;;;;;;;16.37;45.21;100766.63;4997621;28;1027;-51
2023/07/18 04:45:28;;;;;;;;;;;;;;;16.48;45.29;100765.53;4996994;28;1902;-54
2023/07/18 04:47:53;;;;;;;;;;;;;;;16.52;44.88;100761.16;4991207;28;2545;-53
2023/07/18 04:50:19;;;;;;;;;;;;;;;16.71;45.08;100755.94;4994266;28;1045;-56
2023/07/18 04:52:44;;;;;;;;;;;;;;;17.60;44.18;100758.25;4997249;28;1098;-56
2023/07/18 04:55:10;;;;;;;;;;;;;;;17.29;45.14;100763.00;4997267;28;1024;-56
2023/07/18 04:57:36;;;;;;;;;;;;;;;17.21;45.81;100769.09;4996991;28;1076;-54
2023/07/18 05:00:02;;;;;;;;;;;;;;;17.16;46.15;100758.13;4997011;28;1071;-56
2023/07/18 05:02:28;;;;;;;;;;;;;;;17.07;46.55;100758.69;4996167;28;1211;-54
2023/07/18 05:04:53;;;;;;;;;;;;;;;16.97;46.95;100761.44;4996465;28;1969;-55
2023/07/18 05:07:19;;;;;;;;;;;;;;;17.00;47.06;100766.38;4996551;28;1207;-55
2023/07/18 05:09:46;;;;;;;;;;;;;;;16.94;47.79;100775.72;4995869;28;1258;-55
2023/07/18 05:12:11;;;;;;;;;;;;;;;16.91;47.61;100765.28;4996442;28;1390;-53
2023/07/18 05:14:37;;;;;;;;;;;;;;;16.86;48.32;100773.50;4996269;28;1120;-55
2023/07/18 05:17:02;;;;;;;;;;;;;;;16.87;48.36;100769.66;4997377;28;1128;-55
2023/07/18 05:19:28;;;;;;;;;;;;;;;16.86;48.62;100779.81;4996092;28;2626;-52
2023/07/18 05:21:54;;;;;;;;;;;;;;;16.82;48.88;100783.41;4996690;28;1215;-56
2023/07/18 05:24:19;;;;;;;;;;;;;;;16.81;49.07;100781.75;4995241;28;1986;-55
2023/07/18 05:26:45;;;;;;;;;;;;;;;16.76;49.25;100775.16;4996287;28;1129;-54
2023/07/18 05:29:10;;;;;;;;;;;;;;;16.72;49.64;100779.53;4996536;28;1231;-55
2023/07/18 05:31:36;;;;;;;;;;;;;;;16.71;49.84;100783.38;4995453;28;1172;-54
2023/07/18 05:34:01;;;;;;;;;;;;;;;16.73;49.78;100781.19;4995080;28;1212;-56
2023/07/18 05:36:27;;;;;;;;;;;;;;;16.71;50.22;100783.38;4995250;28;1235;-55
2023/07/18 05:38:52;;;;;;;;;;;;;;;16.89;51.95;100779.28;4995199;28;1008;-57
2023/07/18 05:41:18;;;;;;;;;;;;;;;16.80;52.30;100769.91;4995619;28;1290;-53
2023/07/18 05:43:43;;;;;;;;;;;;;;;16.75;52.36;100781.75;4995446;28;1906;-54
2023/07/18 05:46:09;;;;;;;;;;;;;;;16.84;53.08;100775.69;4995759;28;1099;-57
2023/07/18 05:48:35;;;;;;;;;;;;;;;16.84;53.70;100781.19;4995383;28;1822;-55
2023/07/18 05:51:00;;;;;;;;;;;;;;;16.76;53.41;100786.13;4994478;28;1330;-56
2023/07/18 05:53:26;;;;;;;;;;;;;;;16.81;53.50;100782.56;4995975;28;1408;-56
2023/07/18 05:55:52;;;;;;;;;;;;;;;16.73;53.54;100785.84;4995319;28;1135;-55
2023/07/18 05:58:17;;;;;;;;;;;;;;;16.80;53.51;100780.09;4995703;28;1128;-56
2023/07/18 06:00:43;;;;;;;;;;;;;;;16.80;53.64;100778.16;4995646;28;1108;-57
2023/07/18 06:03:08;;;;;;;;;;;;;;;16.74;54.02;100793.00;4995823;28;1017;-53
2023/07/18 06:05:33;;;;;;;;;;;;;;;16.71;53.93;100788.88;4995474;28;1989;-58
2023/07/18 06:07:59;;;;;;;;;;;;;;;16.69;53.79;100780.09;4995416;28;1107;-57
2023/07/18 06:10:24;;;;;;;;;;;;;;;16.92;54.71;100767.75;4995250;28;1052;-58
2023/07/18 06:12:50;;;;;;;;;;;;;;;17.14;55.60;100779.53;4995226;28;904;-58
2023/07/18 06:15:15;;;;;;;;;;;;;;;17.26;56.37;100777.31;4995548;28;950;-57
2023/07/18 06:17:41;;;;;;;;;;;;;;;17.16;56.30;100778.16;4994546;28;2267;-57
2023/07/18 06:20:13;;;;;;;;;;;;;;;16.99;56.29;100778.47;4996032;28;1079;-56
2023/07/18 06:22:38;;;;;;;;;;;;;;;16.91;55.97;100776.28;4997800;28;1036;-56
2023/07/18 06:25:04;;;;;;;;;;;;;;;17.08;55.95;100779.56;4998303;28;1909;-57
2023/07/18 06:27:31;;;;;;;;;;;;;;;17.16;56.06;100771.84;4999122;28;1532;-57
2023/07/18 06:29:56;;;;;;;;;;;;;;;17.17;56.10;100766.06;4998922;28;1075;-57
2023/07/18 06:32:23;;;;;;;;;;;;;;;17.18;56.29;100767.72;4999100;28;1039;-56
2023/07/18 06:34:49;;;;;;;;;;;;;;;17.21;56.12;100766.34;4997969;28;1020;-56
2023/07/18 06:37:14;;;;;;;;;;;;;;;17.29;56.33;100765.75;4998214;28;952;-56
2023/07/18 06:39:40;;;;;;;;;;;;;;;17.21;56.08;100764.44;4997844;28;1083;-57
2023/07/18 06:42:07;;;;;;;;;;;;;;;17.08;56.04;100768.56;4998940;28;1204;-61
2023/07/18 06:44:33;;;;;;;;;;;;;;;17.08;56.10;100759.50;4996279;28;1910;-59
2023/07/18 06:46:58;;;;;;;;;;;;;;;17.06;55.74;100761.72;4996243;28;1232;-58
2023/07/18 06:49:24;;;;;;;;;;;;;;;17.01;55.65;100759.81;4998845;28;2648;-58
2023/07/18 06:51:51;;;;;;;;;;;;;;;17.02;55.38;100755.94;4998580;28;1015;-57
2023/07/18 06:54:16;;;;;;;;;;;;;;;16.95;55.34;100755.41;4998810;28;1028;-58
2023/07/18 06:56:44;;;;;;;;;;;;;;;17.03;55.10;100752.09;4998663;28;1064;-58
2023/07/18 06:59:10;;;;;;;;;;;;;;;17.00;55.26;100749.91;4998524;28;1108;-58
2023/07/18 07:01:35;;;;;;;;;;;;;;;16.96;55.37;100751.56;4998428;28;1060;-59
2023/07/18 07:04:01;;;;;;;;;;;;;;;17.05;54.97;100749.88;4997645;28;1905;-58
2023/07/18 07:06:26;;;;;;;;;;;;;;;16.96;55.11;100747.97;4997807;28;1040;-59
2023/07/18 07:08:52;;;;;;;;;;;;;;;16.99;54.86;100750.19;4998272;28;1199;-57
2023/07/18 07:11:17;;;;;;;;;;;;;;;17.15;56.09;100753.72;4996949;28;929;-57
2023/07/18 07:13:44;;;;;;;;;;;;;;;17.09;56.06;100750.97;4998082;28;916;-57
2023/07/18 07:16:10;;;;;;;;;;;;;;;17.06;55.57;100746.03;4998063;28;1092;-58
2023/07/18 07:18:35;;;;;;;;;;;;;;;17.01;55.68;100740.56;4997998;28;2476;-57
2023/07/18 07:21:01;;;;;;;;;;;;;;;16.97;55.67;100747.72;4997708;28;1254;-59
2023/07/18 07:23:28;;;;;;;;;;;;;;;16.97;55.44;100738.63;4998042;28;1191;-59
2023/07/18 07:25:54;;;;;;;;;;;;;;;16.94;55.32;100740.00;4998036;28;1915;-58
2023/07/18 07:28:22;;;;;;;;;;;;;;;16.99;55.15;100750.19;4998096;28;1079;-57
2023/07/18 07:30:48;;;;;;;;;;;;;;;17.05;55.60;100747.13;4997621;28;1055;-60
2023/07/18 07:33:14;;;;;;;;;;;;;;;16.97;55.53;100753.22;4996775;28;1132;-62
2023/07/18 07:35:39;;;;;;;;;;;;;;;16.99;55.52;100745.50;4997547;28;1036;-60
2023/07/18 07:38:05;;;;;;;;;;;;;;;16.97;55.36;100753.22;4997230;28;1116;-58
2023/07/18 07:40:31;;;;;;;;;;;;;;;17.01;55.67;100754.31;4997214;28;1436;-57
2023/07/18 07:42:56;;;;;;;;;;;;;;;16.97;55.49;100753.22;4997818;28;1171;-58
2023/07/18 07:45:22;;;;;;;;;;;;;;;16.98;55.41;100759.50;4997637;28;1973;-58
2023/07/18 07:47:47;;;;;;;;;;;;;;;16.94;55.37;100764.72;4997339;28;2383;-57
2023/07/18 07:50:13;;;;;;;;;;;;;;;17.00;55.01;100758.16;4996883;28;946;-58
2023/07/18 07:52:39;;;;;;;;;;;;;;;16.91;55.23;100755.13;4997614;28;1167;-58
2023/07/18 07:55:04;;;;;;;;;;;;;;;17.07;55.66;100753.19;4997675;28;1043;-57
2023/07/18 07:57:30;;;;;;;;;;;;;;;17.17;56.37;100757.03;4997195;28;1163;-58
2023/07/18 07:59:56;;;;;;;;;;;;;;;17.23;56.82;100736.66;4996482;28;951;-56
2023/07/18 08:02:22;;;;;;;;;;;;;;;17.28;56.77;100736.66;4996281;28;1047;-58
2023/07/18 08:04:47;;;;;;;;;;;;;;;17.14;56.66;100736.41;4998169;28;1975;-57
2023/07/18 08:07:13;;;;;;;;;;;;;;;17.10;56.40;100746.31;4996658;28;1040;-58
2023/07/18 08:09:39;;;;;;;;;;;;;;;17.11;56.20;100739.72;4997906;28;1086;-57
2023/07/18 08:12:05;;;;;;;;;;;;;;;17.10;56.22;100749.88;4984727;28;966;-59
2023/07/18 08:14:31;;;;;;;;;;;;;;;17.06;56.14;100745.22;4997914;28;1013;-57
2023/07/18 08:16:57;;;;;;;;;;;;;;;17.14;55.65;100750.16;4997703;28;1276;-59
2023/07/18 08:19:22;;;;;;;;;;;;;;;17.05;55.77;100741.63;4997972;28;2467;-59
2023/07/18 08:21:48;;;;;;;;;;;;;;;17.03;55.82;100737.53;4997733;28;1191;-59
2023/07/18 08:24:14;;;;;;;;;;;;;;;17.07;55.67;100735.88;4997636;28;1985;-59
2023/07/18 08:26:39;;;;;;;;;;;;;;;17.14;55.87;100739.16;4997296;28;941;-57
2023/07/18 08:29:05;;;;;;;;;;;;;;;17.23;55.92;100739.41;4997721;28;1039;-59
2023/07/18 08:31:30;;;;;;;;;;;;;;;17.14;56.01;100747.41;4997713;28;1356;-59
2023/07/18 08:33:56;;;;;;;;;;;;;;;17.17;56.28;100746.03;4997311;28;997;-58
2023/07/18 08:36:21;;;;;;;;;;;;;;;17.19;56.32;100749.31;4997153;28;1124;-57
2023/07/18 08:38:50;;;;;;;;;;;;;;;17.14;56.28;100747.41;4997077;28;1026;-59
2023/07/18 08:41:21;;;;;;;;;;;;;;;17.16;55.98;100747.13;4997048;28;1298;-58
2023/07/18 08:43:47;;;;;;;;;;;;;;;17.15;55.80;100749.03;4996785;28;1250;-58
2023/07/18 08:46:13;;;;;;;;;;;;;;;17.13;55.97;100748.50;4997183;28;1905;-58
2023/07/18 08:48:39;;;;;;;;;;;;;;;17.15;55.88;100750.97;4996219;28;2427;-59
2023/07/18 08:51:08;;;;;;;;;;;;;;;17.21;55.74;100758.13;4995778;28;1043;-59
2023/07/18 08:53:34;;;;;;;;;;;;;;;17.22;55.91;100757.00;4997188;28;1069;-59
2023/07/18 08:56:00;;;;;;;;;;;;;;;17.17;56.25;100751.53;4997547;28;1118;-59
2023/07/18 08:58:26;;;;;;;;;;;;;;;17.22;56.12;100752.34;4997254;28;1178;-59
2023/07/18 09:00:51;;;;;;;;;;;;;;;17.26;55.99;100761.69;4995509;28;993;-59
2023/07/18 09:03:17;;;;;;;;;;;;;;;17.26;56.28;100756.19;4997044;28;1110;-59
2023/07/18 09:05:43;;;;;;;;;;;;;;;17.23;56.15;100755.91;4996980;28;1902;-58
2023/07/18 09:08:08;;;;;;;;;;;;;;;17.26;55.81;100755.34;4996937;28;1218;-58
2023/07/18 09:10:34;;;;;;;;;;;;;;;17.21;55.90;100758.13;4996570;28;1156;-58
2023/07/18 09:13:00;;;;;;;;;;;;;;;17.21;55.95;100758.13;4996565;28;1091;-58
2023/07/18 09:15:26;;;;;;;;;;;;;;;17.24;55.73;100757.56;4996278;28;1064;-58
2023/07/18 09:17:55;;;;;;;;;;;;;;;17.17;55.74;100751.53;4996092;28;2445;-58
2023/07/18 09:20:21;;;;;;;;;;;;;;;17.21;55.81;100747.94;4996112;28;1176;-57
2023/07/18 09:22:47;;;;;;;;;;;;;;;17.19;55.99;100743.81;4995202;28;1071;-60
2023/07/18 09:25:15;;;;;;;;;;;;;;;17.23;55.81;100742.97;4995457;28;1902;-59
2023/07/18 09:27:41;;;;;;;;;;;;;;;17.22;55.73;100735.84;4996011;28;1164;-59
2023/07/18 09:30:07;;;;;;;;;;;;;;;17.26;55.80;100736.94;4994361;28;1314;-59
2023/07/18 09:32:33;;;;;;;;;;;;;;;17.21;55.84;100736.94;4995342;28;1203;-58
2023/07/18 09:34:59;;;;;;;;;;;;;;;17.34;56.00;100729.22;4977458;28;1247;-57
2023/07/18 09:37:24;;;;;;;;;;;;;;;17.38;56.57;100739.38;4994974;28;1115;-58
2023/07/18 09:39:50;;;;;;;;;;;;;;;17.48;56.56;100730.25;4996131;28;1321;-57
2023/07/18 09:42:16;;;;;;;;;;;;;;;17.51;56.67;100734.38;4993556;28;1306;-57
2023/07/18 09:44:41;;;;;;;;;;;;;;;17.47;57.06;100728.59;4994404;28;1902;-57
2023/07/18 09:47:07;;;;;;;;;;;;;;;17.48;56.95;100723.94;4994563;28;802;-57
2023/07/18 09:49:33;;;;;;;;;;;;;;;17.55;56.98;100728.03;4993196;28;2688;-57
2023/07/18 09:52:02;;;;;;;;;;;;;;;17.58;57.03;100721.16;4994894;28;1102;-57
2023/07/18 09:54:27;;;;;;;;;;;;;;;17.73;56.95;100726.56;4982293;28;1123;-54
2023/07/18 09:56:53;;;;;;;;;;;;;;;17.74;57.12;100706.22;4983404;28;1021;-54
2023/07/18 09:59:19;;;;;;;;;;;;;;;17.81;57.25;100713.34;4994951;28;1001;-58
2023/07/18 10:01:45;;;;;;;;;;;;;;;17.83;56.91;100706.44;4994358;28;1048;-57
2023/07/18 10:04:10;;;;;;;;;;;;;;;17.72;57.25;100705.66;4995387;28;1898;-58
2023/07/18 10:06:36;;;;;;;;;;;;;;;17.72;57.12;100713.09;4995218;28;1012;-58
2023/07/18 10:09:01;;;;;;;;;;;;;;;17.62;57.06;100703.78;4982571;28;1107;-58
2023/07/18 10:11:27;;;;;;;;;;;;;;;17.87;56.85;100706.72;5002970;28;946;-58
2023/07/18 10:13:55;;;;;;;;;;;;;;;17.78;57.12;100706.47;4995020;28;1253;-56
2023/07/18 10:16:21;;;;;;;;;;;;;;;17.78;57.24;100695.47;4993002;28;1305;-58
2023/07/18 10:18:47;;;;;;;;;;;;;;;17.71;57.21;100717.81;4994086;28;2490;-58
2023/07/18 10:21:14;;;;;;;;;;;;;;;17.79;57.07;100702.63;4995261;28;1047;-57
2023/07/18 10:23:42;;;;;;;;;;;;;;;17.70;57.04;100702.41;4994482;28;1263;-60
2023/07/18 10:26:08;;;;;;;;;;;;;;;17.71;56.90;100712.31;4994910;28;1914;-60
2023/07/18 10:29:00;;;;;;;;;;;;;;;17.64;56.70;100694.44;4994807;28;908;-59
2023/07/18 10:31:27;;;;;;;;;;;;;;;17.58;56.62;100704.66;4994257;28;1656;-62
2023/07/18 10:34:11;;;;;;;;;;;;;;;17.55;56.61;100716.22;4995486;28;1131;-58
2023/07/18 10:36:37;;;;;;;;;;;;;;;17.58;56.39;100707.41;4986027;28;1863;-59
2023/07/18 10:39:08;;;;;;;;;;;;;;;17.51;56.53;100698.63;4993773;28;881;-59
2023/07/18 10:41:34;;;;;;;;;;;;;;;17.55;56.39;100697.78;4995189;28;991;-59
2023/07/18 10:44:00;;;;;;;;;;;;;;;17.59;56.37;100698.88;4987485;28;1973;-60
2023/07/18 10:46:34;;;;;;;;;;;;;;;17.60;56.23;100688.72;4991146;28;1011;-57
2023/07/18 10:49:00;;;;;;;;;;;;;;;17.76;56.92;100692.19;4993613;28;1941;-58
2023/07/18 10:51:25;;;;;;;;;;;;;;;17.71;57.02;100698.53;4994838;28;919;-57
2023/07/18 10:53:54;;;;;;;;;;;;;;;17.62;56.92;100700.22;4995071;28;1128;-58
2023/07/18 10:56:21;;;;;;;;;;;;;;;17.64;56.81;100695.25;4993608;28;997;-58
2023/07/18 10:58:47;;;;;;;;;;;;;;;17.61;56.49;100691.19;4993666;28;1106;-58
2023/07/18 11:01:12;;;;;;;;;;;;;;;17.75;56.35;100704.28;4994376;28;1017;-60
2023/07/18 11:03:42;;;;;;;;;;;;;;;17.69;56.31;100697.19;4994552;28;885;-60
2023/07/18 11:06:07;;;;;;;;;;;;;;;17.73;56.49;100699.06;4994631;28;1910;-61
2023/07/18 11:08:33;;;;;;;;;;;;;;;17.73;56.41;100692.75;4997777;28;1156;-59
2023/07/18 11:10:59;;;;;;;;;;;;;;;17.67;56.61;100689.22;4998557;28;1114;-56
2023/07/18 11:13:30;;;;;;;;;;;;;;;17.65;56.31;100680.41;4998252;28;1246;-60
2023/07/18 11:15:56;;;;;;;;;;;;;;;17.59;56.54;100687.06;4998132;28;1115;-60
2023/07/18 11:18:22;;;;;;;;;;;;;;;17.60;56.11;100689.53;4998323;28;2502;-59
2023/07/18 11:20:47;;;;;;;;;;;;;;;17.71;56.30;100692.22;4997034;28;1086;-59
2023/07/18 11:23:13;;;;;;;;;;;;;;;17.62;56.13;100681.00;4997526;28;1333;-59
2023/07/18 11:25:38;;;;;;;;;;;;;;;17.63;56.47;100679.88;4997799;28;1977;-59
2023/07/18 11:28:04;;;;;;;;;;;;;;;17.73;56.47;100679.81;4998183;28;877;-59
2023/07/18 11:30:30;;;;;;;;;;;;;;;17.70;56.56;100682.34;4998014;28;1215;-61
2023/07/18 11:32:56;;;;;;;;;;;;;;;17.74;55.99;100675.97;5012842;28;1253;-60
2023/07/18 11:35:22;;;;;;;;;;;;;;;17.66;56.24;100670.25;4998121;28;1036;-60
2023/07/18 11:37:51;;;;;;;;;;;;;;;17.63;56.09;100666.13;4994325;28;1124;-57
2023/07/18 11:40:18;;;;;;;;;;;;;;;17.64;55.87;100667.75;4996987;28;865;-58
2023/07/18 11:42:44;;;;;;;;;;;;;;;17.54;56.06;100659.56;4997825;28;1066;-58
2023/07/18 11:45:09;;;;;;;;;;;;;;;17.56;56.10;100668.38;4997850;28;1910;-59
2023/07/18 11:47:35;;;;;;;;;;;;;;;17.54;56.21;100665.06;4997620;28;1823;-59
2023/07/18 11:50:01;;;;;;;;;;;;;;;17.61;55.78;100668.34;4997789;28;1023;-59
2023/07/18 11:52:27;;;;;;;;;;;;;;;17.56;55.76;100654.63;4997885;28;948;-59
2023/07/18 11:54:52;;;;;;;;;;;;;;;17.56;56.05;100665.63;4997840;28;1239;-59
2023/07/18 11:57:18;;;;;;;;;;;;;;;17.55;55.88;100659.28;4990466;28;872;-61
2023/07/18 11:59:43;;;;;;;;;;;;;;;17.57;55.87;100662.59;4987810;28;932;-61
2023/07/18 12:02:09;;;;;;;;;;;;;;;17.55;55.76;100653.78;4995685;28;1285;-61
2023/07/18 12:04:35;;;;;;;;;;;;;;;17.50;56.24;100651.09;4995278;28;1903;-62
2023/07/18 12:07:00;;;;;;;;;;;;;;;17.58;55.75;100655.16;4989386;28;1032;-62
2023/07/18 12:09:26;;;;;;;;;;;;;;;17.56;55.72;100646.38;4995219;28;1211;-56
2023/07/18 12:11:51;;;;;;;;;;;;;;;17.59;55.84;100654.06;4988325;28;1043;-65
2023/07/18 12:14:17;;;;;;;;;;;;;;;17.67;56.11;100650.72;4994360;28;1106;-64
2023/07/18 12:16:42;;;;;;;;;;;;;;;17.69;55.97;100648.50;4997133;28;1074;-66
2023/07/18 12:19:09;;;;;;;;;;;;;;;17.58;56.17;100646.91;4996841;28;1758;-65
2023/07/18 12:21:35;;;;;;;;;;;;;;;17.67;56.39;100644.38;4997120;28;1305;-65
2023/07/18 12:24:01;;;;;;;;;;;;;;;17.79;56.43;100637.44;4996125;28;1911;-62
2023/07/18 12:26:27;;;;;;;;;;;;;;;17.89;57.12;100642.06;4997094;28;921;-62
2023/07/18 12:28:54;;;;;;;;;;;;;;;18.03;57.30;100638.69;4996994;28;1037;-62
2023/07/18 12:31:20;;;;;;;;;;;;;;;17.89;57.21;100631.06;4995486;28;1198;-64
2023/07/18 12:33:46;;;;;;;;;;;;;;;17.79;57.02;100626.44;4996584;28;1380;-63
2023/07/18 12:36:12;;;;;;;;;;;;;;;17.77;56.69;100619.59;4997288;28;1044;-65
2023/07/18 12:38:38;;;;;;;;;;;;;;;17.87;57.00;100621.44;4996874;28;1139;-61
2023/07/18 12:41:03;;;;;;;;;;;;;;;18.06;56.88;100625.19;4995654;28;997;-64